Главная страница
METAR-TAF:

METAR-TAF

Аэропорты :

Осима

Oshima, Япония

широта: 34-47N, долгота: 139-22E, высота над уровнем моря: 38 м

Текущие метеонаблюдения

Эта сводка был подготовлена 58 минут назад, в 03:00 UTC
Ветер 9 Узел от северный, изменяющийся между северно-северо-западный и северо-восточный
Температура 18°C
Влажность 88%
Давление 1012 hPa
Видимость 10 км и более
небольшая облачность на высоте 500 фута
Рассеянная облачность на высоте 700 фута
Рассеянная облачность на высоте 1000 фута

METAR: RJTO 200300Z 01009KT 340V050 9999 FEW005 BKN007 BKN010 18/16 Q1012

Время: 12:58 (03:58 UTC)


TAF: отсутствует

Метеонаблюдения и прогнозы для более 4000 аэропортов (сводки METAR и TAF).

Имеющиеся станции представлены на карте желтыми и красными точками.

Чтобы увидеть название станции, наведите на нее мышь.

Затем щелкните, чтобы увидеть метеонаблюдения и метеопрогнозы.

Управление картой: чтобы увеличить масштаб, щелкните зеленые кнопки с черным крестиком; чтобы уменьшить масштаб, щелкните зеленую кнопку с тире; для просмотра соседних карт щелкайте зеленые стрелки.


METAR-TAF: